Time;durP1;ratioP1;P1;durP2;ratioP2;P2;SDS_P1;SDS_P2;PMS_P1;PMS_P2;Temp;Humidity;BMP_temperature;BMP_pressure;BME280_temperature;BME280_humidity;BME280_pressure;Samples;Min_cycle;Max_cycle;Signal;HPM_P1;HPM_P2
2022/02/19 00:00:05;;;;;;;17.98;3.28;;;6.00;92.80;;;;;;5011495;28;25138;-69
2022/02/19 00:02:32;;;;;;;22.55;4.15;;;6.00;93.10;;;;;;5007335;28;25109;-70
2022/02/19 00:04:57;;;;;;;23.90;5.40;;;6.00;93.30;;;;;;4990855;28;25075;-72
2022/02/19 00:07:23;;;;;;;24.33;5.18;;;6.00;93.20;;;;;;5005575;28;25085;-71
2022/02/19 00:09:48;;;;;;;19.17;4.75;;;6.00;93.30;;;;;;4987939;28;25076;-69
2022/02/19 00:12:14;;;;;;;28.85;4.75;;;6.00;93.40;;;;;;5000809;28;25107;-70
2022/02/19 00:14:39;;;;;;;25.05;3.97;;;6.00;93.50;;;;;;5008537;28;25060;-70
2022/02/19 00:17:05;;;;;;;22.80;4.22;;;5.90;93.60;;;;;;5008848;28;25080;-70
2022/02/19 00:19:31;;;;;;;20.92;4.85;;;5.90;93.60;;;;;;5008701;28;25051;-70
2022/02/19 00:21:57;;;;;;;24.00;5.22;;;5.90;93.50;;;;;;5008169;28;25130;-71
2022/02/19 00:24:22;;;;;;;18.10;4.32;;;5.90;93.40;;;;;;5007722;28;25118;-69
2022/02/19 00:26:48;;;;;;;26.00;4.32;;;5.90;93.20;;;;;;5007900;28;25093;-70
2022/02/19 00:29:14;;;;;;;26.30;4.88;;;5.90;93.00;;;;;;5008716;28;25069;-69
2022/02/19 00:31:39;;;;;;;17.60;3.63;;;5.90;93.10;;;;;;5008386;28;25058;-71
2022/02/19 00:34:06;;;;;;;22.40;4.47;;;5.90;92.60;;;;;;5007686;28;25148;-72
2022/02/19 00:36:31;;;;;;;23.15;4.95;;;5.90;92.30;;;;;;4990280;28;25096;-71
2022/02/19 00:38:57;;;;;;;32.25;4.60;;;6.00;91.90;;;;;;5008119;28;25165;-69
2022/02/19 00:41:22;;;;;;;20.35;3.67;;;6.00;91.70;;;;;;5007329;28;25154;-72
2022/02/19 00:43:50;;;;;;;23.15;5.20;;;6.10;91.60;;;;;;5008327;28;25107;-70
2022/02/19 00:46:16;;;;;;;15.75;3.70;;;6.10;91.60;;;;;;5008208;28;25117;-69
2022/02/19 00:48:41;;;;;;;19.08;3.78;;;6.10;91.40;;;;;;5008601;28;25063;-70
2022/02/19 00:51:07;;;;;;;18.85;3.72;;;6.00;90.90;;;;;;5010970;28;25079;-71
2022/02/19 00:53:32;;;;;;;23.77;3.22;;;6.10;90.80;;;;;;5008505;28;25080;-72
2022/02/19 00:55:59;;;;;;;11.93;3.20;;;6.10;90.80;;;;;;5013370;28;25093;-70
2022/02/19 00:58:24;;;;;;;21.67;4.22;;;6.10;90.60;;;;;;5011834;28;25051;-67
2022/02/19 01:00:50;;;;;;;18.45;3.15;;;6.10;91.00;;;;;;5012882;28;25058;-70
2022/02/19 01:03:15;;;;;;;25.02;4.20;;;6.10;91.10;;;;;;5013525;28;25059;-68
2022/02/19 01:05:41;;;;;;;16.33;3.30;;;6.10;91.20;;;;;;5016718;28;25060;-69
2022/02/19 01:08:07;;;;;;;17.00;3.45;;;6.10;91.10;;;;;;5009148;28;25061;-69
2022/02/19 01:10:34;;;;;;;16.33;3.63;;;6.10;90.60;;;;;;5010394;28;25060;-68
2022/02/19 01:12:59;;;;;;;14.73;3.33;;;6.10;90.80;;;;;;4975974;28;25152;-68
2022/02/19 01:15:25;;;;;;;14.55;3.30;;;6.00;90.80;;;;;;5000568;28;25054;-70
2022/02/19 01:17:51;;;;;;;15.57;3.00;;;6.00;90.40;;;;;;5005988;28;25095;-69
2022/02/19 01:20:17;;;;;;;14.35;3.50;;;6.00;90.10;;;;;;5007887;28;25048;-69
2022/02/19 01:22:43;;;;;;;21.15;4.00;;;6.00;90.10;;;;;;4988890;28;25079;-69
2022/02/19 01:25:12;;;;;;;12.40;3.08;;;6.10;90.10;;;;;;5006999;28;25118;-68
2022/02/19 01:27:37;;;;;;;19.83;3.15;;;6.10;90.00;;;;;;5008398;28;25159;-70
2022/02/19 01:30:05;;;;;;;21.13;3.30;;;6.10;90.20;;;;;;5000091;28;25091;-69
2022/02/19 01:32:31;;;;;;;22.83;3.45;;;6.10;90.40;;;;;;5007575;28;25075;-69
2022/02/19 01:34:58;;;;;;;17.98;3.25;;;6.10;90.30;;;;;;5007381;28;25074;-67
2022/02/19 01:37:24;;;;;;;17.30;3.65;;;6.10;90.50;;;;;;5009592;28;25081;-67
2022/02/19 01:39:49;;;;;;;14.90;3.50;;;6.10;90.70;;;;;;5012484;28;25058;-69
2022/02/19 01:42:15;;;;;;;23.65;3.58;;;6.10;90.90;;;;;;5015054;28;25076;-66
2022/02/19 01:44:45;;;;;;;21.88;4.13;;;6.00;91.10;;;;;;5015468;28;25060;-68
2022/02/19 01:47:11;;;;;;;18.02;3.80;;;6.10;91.40;;;;;;5029674;28;25077;-70
2022/02/19 01:49:37;;;;;;;16.73;3.45;;;6.10;91.50;;;;;;5033435;28;25140;-70
2022/02/19 01:52:04;;;;;;;14.25;3.47;;;6.00;91.40;;;;;;5037549;28;25079;-68
2022/02/19 01:54:30;;;;;;;20.50;3.25;;;6.00;91.40;;;;;;5023090;28;25059;-68
2022/02/19 01:56:58;;;;;;;23.52;3.70;;;6.00;91.60;;;;;;5026805;28;25114;-67
2022/02/19 01:59:24;;;;;;;17.20;2.97;;;6.00;91.60;;;;;;5025510;28;25057;-70
2022/02/19 02:01:49;;;;;;;21.92;2.88;;;6.00;91.70;;;;;;5032694;28;25093;-70
2022/02/19 02:04:15;;;;;;;22.55;4.35;;;6.00;91.40;;;;;;5029679;28;25064;-70
2022/02/19 02:06:42;;;;;;;21.35;3.97;;;6.00;90.90;;;;;;5017590;28;25106;-69
2022/02/19 02:09:07;;;;;;;16.27;3.63;;;6.00;90.80;;;;;;5028515;28;25063;-70
2022/02/19 02:11:33;;;;;;;20.75;3.53;;;6.00;90.50;;;;;;5028765;28;25061;-68
2022/02/19 02:13:59;;;;;;;20.63;3.78;;;6.10;90.40;;;;;;5027635;28;25063;-69
2022/02/19 02:16:40;;;;;;;20.10;3.65;;;6.10;90.00;;;;;;5028031;28;25075;-69
2022/02/19 02:19:08;;;;;;;17.30;4.53;;;6.10;90.00;;;;;;5015201;28;25149;-68
2022/02/19 02:21:34;;;;;;;27.20;5.82;;;6.10;90.20;;;;;;5016349;28;25110;-69
2022/02/19 02:24:00;;;;;;;25.17;3.67;;;6.10;90.10;;;;;;5014641;28;25077;-67
2022/02/19 02:26:26;;;;;;;18.42;3.47;;;6.10;90.20;;;;;;5012360;28;25028;-68
2022/02/19 02:28:51;;;;;;;21.33;3.50;;;6.10;90.30;;;;;;5012368;28;25096;-68
2022/02/19 02:31:17;;;;;;;21.17;5.03;;;6.10;90.10;;;;;;5013821;28;25067;-70
2022/02/19 02:33:43;;;;;;;18.08;3.55;;;6.10;90.40;;;;;;5011302;28;25213;-69
2022/02/19 02:36:09;;;;;;;23.17;4.43;;;6.10;90.40;;;;;;5013217;28;25168;-69
2022/02/19 02:38:34;;;;;;;23.02;4.32;;;6.00;90.40;;;;;;5013365;28;25052;-69
2022/02/19 02:41:00;;;;;;;25.27;3.80;;;6.00;90.30;;;;;;5010374;28;25076;-68
2022/02/19 02:43:26;;;;;;;20.33;4.38;;;6.00;90.00;;;;;;5010423;28;25093;-67
2022/02/19 02:45:52;;;;;;;18.77;4.03;;;6.00;89.60;;;;;;5009280;28;25062;-70
2022/02/19 02:48:18;;;;;;;19.85;5.70;;;6.00;90.00;;;;;;5009002;28;25120;-69
2022/02/19 02:50:44;;;;;;;23.80;4.70;;;6.00;90.00;;;;;;5008451;28;25093;-70
2022/02/19 02:53:09;;;;;;;18.63;4.68;;;6.00;90.20;;;;;;5008453;28;25069;-69
2022/02/19 02:55:36;;;;;;;28.58;3.88;;;6.00;90.30;;;;;;5008688;28;25054;-68
2022/02/19 02:58:01;;;;;;;22.70;4.65;;;6.00;90.30;;;;;;4992032;28;25071;-68
2022/02/19 03:00:27;;;;;;;18.83;4.50;;;6.00;90.40;;;;;;5008865;28;25131;-68
2022/02/19 03:02:52;;;;;;;23.77;4.93;;;6.00;90.60;;;;;;5009032;28;25072;-69
2022/02/19 03:05:18;;;;;;;32.42;4.53;;;6.00;90.20;;;;;;5008763;28;25140;-69
2022/02/19 03:07:44;;;;;;;22.67;4.88;;;6.00;90.40;;;;;;4990544;28;25072;-69
2022/02/19 03:10:10;;;;;;;32.17;5.43;;;6.00;89.70;;;;;;5008824;28;25146;-68
2022/02/19 03:12:36;;;;;;;25.52;4.53;;;6.00;89.20;;;;;;5008762;28;25174;-69
2022/02/19 03:15:02;;;;;;;25.33;4.22;;;5.90;89.70;;;;;;5007910;28;25161;-70
2022/02/19 03:17:27;;;;;;;20.70;4.25;;;5.90;90.00;;;;;;4990889;28;25096;-68
2022/02/19 03:19:53;;;;;;;17.75;3.85;;;5.90;90.20;;;;;;5008837;28;25078;-69
2022/02/19 03:22:19;;;;;;;22.40;4.75;;;5.80;90.60;;;;;;5008437;28;25132;-68
2022/02/19 03:24:44;;;;;;;19.52;3.83;;;5.80;90.20;;;;;;5007865;28;25102;-69
2022/02/19 03:27:10;;;;;;;20.98;4.72;;;5.80;90.00;;;;;;5008600;28;25112;-70
2022/02/19 03:29:36;;;;;;;21.25;3.88;;;5.80;90.10;;;;;;5008754;28;25066;-69
2022/02/19 03:32:05;;;;;;;26.50;4.20;;;5.80;90.50;;;;;;5009232;28;25071;-69
2022/02/19 03:34:31;;;;;;;20.98;4.32;;;5.80;90.40;;;;;;5008330;28;25059;-67
2022/02/19 03:36:57;;;;;;;27.13;4.20;;;5.80;89.70;;;;;;5008221;28;25053;-68
2022/02/19 03:39:23;;;;;;;31.33;5.03;;;5.90;89.50;;;;;;5008433;28;25125;-68
2022/02/19 03:41:49;;;;;;;21.42;4.38;;;5.90;89.90;;;;;;4991100;28;25064;-69
2022/02/19 03:44:14;;;;;;;22.83;4.00;;;5.90;90.10;;;;;;4990799;28;25065;-68
2022/02/19 03:46:40;;;;;;;17.17;3.78;;;5.90;90.00;;;;;;5008558;28;25077;-68
2022/02/19 03:49:06;;;;;;;18.70;3.75;;;5.90;89.80;;;;;;5008081;28;25152;-69
2022/02/19 03:51:32;;;;;;;22.33;3.15;;;5.90;89.80;;;;;;5008163;28;25114;-69
2022/02/19 03:53:58;;;;;;;25.77;4.80;;;6.00;89.80;;;;;;5007217;28;25054;-70
2022/02/19 03:56:23;;;;;;;17.95;4.00;;;6.00;89.90;;;;;;5008499;28;25062;-68
2022/02/19 03:58:49;;;;;;;15.68;3.47;;;6.00;90.10;;;;;;4991330;28;25171;-70
2022/02/19 04:01:15;;;;;;;24.15;4.53;;;6.00;89.90;;;;;;5008247;28;25073;-70
2022/02/19 04:03:40;;;;;;;36.65;4.93;;;6.00;90.10;;;;;;5014712;28;25053;-70
2022/02/19 04:06:06;;;;;;;24.25;4.40;;;6.00;90.30;;;;;;5012449;28;25108;-70
2022/02/19 04:08:32;;;;;;;19.10;4.28;;;6.00;90.30;;;;;;5008636;28;25064;-69
2022/02/19 04:10:58;;;;;;;23.63;4.15;;;6.00;90.20;;;;;;5008399;28;25077;-69
2022/02/19 04:13:23;;;;;;;21.10;4.07;;;6.00;90.10;;;;;;5007034;28;25066;-70
2022/02/19 04:15:49;;;;;;;21.38;3.45;;;6.00;90.00;;;;;;5007242;28;25060;-68
2022/02/19 04:18:15;;;;;;;22.98;4.15;;;6.00;90.00;;;;;;5007497;28;25144;-70
2022/02/19 04:20:41;;;;;;;26.23;4.93;;;6.00;89.20;;;;;;5007652;28;25041;-68
2022/02/19 04:23:06;;;;;;;17.40;3.75;;;6.00;89.00;;;;;;5007657;28;25075;-70
2022/02/19 04:25:32;;;;;;;19.13;4.00;;;6.00;89.50;;;;;;5008673;28;25093;-68
2022/02/19 04:28:07;;;;;;;26.35;3.90;;;6.00;89.40;;;;;;5008701;28;25066;-70
2022/02/19 04:30:33;;;;;;;17.83;3.65;;;6.00;89.60;;;;;;4990347;28;25138;-68
2022/02/19 04:32:59;;;;;;;19.70;4.05;;;5.90;89.80;;;;;;4989936;28;25155;-69
2022/02/19 04:35:26;;;;;;;22.30;4.25;;;6.00;89.90;;;;;;5007632;28;25069;-70
2022/02/19 04:37:52;;;;;;;22.20;4.03;;;5.90;90.20;;;;;;5007379;28;25080;-68
2022/02/19 04:40:18;;;;;;;32.65;4.47;;;5.90;90.00;;;;;;5008311;28;25139;-69
2022/02/19 04:42:43;;;;;;;23.63;3.58;;;6.00;90.10;;;;;;5007150;28;25142;-68
2022/02/19 04:45:14;;;;;;;36.25;3.80;;;5.90;90.10;;;;;;4990046;28;25144;-69
2022/02/19 04:47:41;;;;;;;17.15;3.47;;;5.90;90.30;;;;;;5006233;28;25153;-69
2022/02/19 04:50:07;;;;;;;20.42;4.57;;;5.90;90.30;;;;;;5007899;28;25070;-68
2022/02/19 04:52:33;;;;;;;22.58;4.22;;;5.90;90.50;;;;;;5007434;28;25077;-70
2022/02/19 04:54:59;;;;;;;21.05;3.78;;;5.90;90.50;;;;;;5007303;28;25089;-69
2022/02/19 04:57:24;;;;;;;24.55;4.50;;;5.90;90.50;;;;;;5007543;28;25524;-69
2022/02/19 04:59:51;;;;;;;16.55;4.18;;;5.90;90.60;;;;;;5007929;28;25046;-70
2022/02/19 05:02:16;;;;;;;18.60;3.72;;;5.90;90.50;;;;;;5007261;28;25058;-68
2022/02/19 05:04:42;;;;;;;20.30;4.15;;;5.90;90.50;;;;;;5004624;28;25050;-68
2022/02/19 05:07:07;;;;;;;20.40;3.30;;;5.90;90.60;;;;;;5006592;28;25086;-69
2022/02/19 05:09:33;;;;;;;20.75;4.30;;;5.80;90.60;;;;;;5007061;28;25135;-68
2022/02/19 05:11:58;;;;;;;19.75;3.72;;;5.80;90.60;;;;;;5006575;28;25177;-69
2022/02/19 05:14:24;;;;;;;22.13;3.97;;;5.80;90.70;;;;;;5008190;28;25080;-69
2022/02/19 05:16:50;;;;;;;14.98;3.40;;;5.80;90.60;;;;;;5011434;28;25060;-69
2022/02/19 05:19:15;;;;;;;20.60;4.72;;;5.70;91.20;;;;;;4994144;28;25094;-70
2022/02/19 05:21:41;;;;;;;21.60;4.05;;;5.70;91.30;;;;;;5011552;28;25050;-70
2022/02/19 05:24:07;;;;;;;21.88;4.35;;;5.70;91.30;;;;;;5010926;28;25074;-69
2022/02/19 05:26:32;;;;;;;22.92;4.28;;;5.60;91.40;;;;;;5011679;28;25066;-69
2022/02/19 05:28:58;;;;;;;18.33;3.40;;;5.60;91.30;;;;;;5010817;28;25079;-70
2022/02/19 05:31:23;;;;;;;23.85;3.03;;;5.60;91.50;;;;;;5010960;28;25063;-68
2022/02/19 05:33:49;;;;;;;19.85;3.22;;;5.60;91.60;;;;;;4993141;28;25050;-67
2022/02/19 05:36:14;;;;;;;25.05;4.53;;;5.60;91.70;;;;;;5010639;28;25100;-68
2022/02/19 05:38:40;;;;;;;12.70;3.42;;;5.70;91.70;;;;;;5011697;28;25153;-69
2022/02/19 05:41:05;;;;;;;23.35;3.22;;;5.60;91.90;;;;;;5010842;28;25171;-69
2022/02/19 05:43:31;;;;;;;29.92;3.67;;;5.70;91.70;;;;;;5009458;28;25152;-68
2022/02/19 05:45:57;;;;;;;14.10;3.72;;;5.70;91.50;;;;;;5003518;28;25161;-68
2022/02/19 05:48:22;;;;;;;15.45;3.58;;;5.70;91.60;;;;;;5010910;28;25153;-71
2022/02/19 05:50:49;;;;;;;20.73;3.42;;;5.70;91.60;;;;;;5010882;28;25066;-69
2022/02/19 05:53:15;;;;;;;14.23;3.92;;;5.70;91.70;;;;;;5011073;28;25076;-70
2022/02/19 05:55:41;;;;;;;26.98;4.72;;;5.70;91.50;;;;;;5009771;28;25067;-69
2022/02/19 05:58:06;;;;;;;20.38;3.70;;;5.70;91.60;;;;;;5010389;28;25090;-70
2022/02/19 06:00:32;;;;;;;17.85;3.88;;;5.70;91.80;;;;;;5010429;28;25066;-68
2022/02/19 06:02:57;;;;;;;19.75;3.65;;;5.60;91.90;;;;;;5009898;28;25056;-70
2022/02/19 06:05:23;;;;;;;17.30;3.00;;;5.60;91.80;;;;;;5012146;28;25062;-69
2022/02/19 06:07:49;;;;;;;22.98;3.60;;;5.60;91.80;;;;;;5018516;28;25101;-68
2022/02/19 06:10:14;;;;;;;15.75;4.05;;;5.60;91.90;;;;;;5008623;28;25141;-68
2022/02/19 06:12:40;;;;;;;18.90;3.40;;;5.50;91.90;;;;;;5012307;28;25056;-69
2022/02/19 06:15:07;;;;;;;16.83;3.92;;;5.50;92.00;;;;;;5012534;28;25092;-68
2022/02/19 06:17:33;;;;;;;15.18;3.13;;;5.50;92.20;;;;;;4998945;28;25102;-70
2022/02/19 06:19:59;;;;;;;18.45;3.15;;;5.50;92.30;;;;;;5010561;28;25210;-69
2022/02/19 06:22:25;;;;;;;18.38;3.50;;;5.50;92.40;;;;;;5010664;28;25107;-68
2022/02/19 06:24:51;;;;;;;21.38;3.38;;;5.50;92.50;;;;;;5009212;28;25057;-68
2022/02/19 06:27:16;;;;;;;21.50;3.25;;;5.50;92.60;;;;;;5010572;28;25073;-70
2022/02/19 06:29:42;;;;;;;19.92;4.30;;;5.50;92.50;;;;;;5011402;28;25106;-68
2022/02/19 06:32:09;;;;;;;17.67;3.90;;;5.40;92.30;;;;;;5011570;28;25120;-70
2022/02/19 06:34:35;;;;;;;17.15;4.38;;;5.40;92.40;;;;;;5002194;28;25138;-69
2022/02/19 06:37:00;;;;;;;20.05;3.55;;;5.40;92.40;;;;;;5004157;28;25104;-69
2022/02/19 06:39:26;;;;;;;18.70;3.92;;;5.40;92.40;;;;;;5006385;28;25084;-70
2022/02/19 06:41:52;;;;;;;22.33;3.38;;;5.40;92.40;;;;;;4989470;28;25097;-68
2022/02/19 06:44:18;;;;;;;20.83;4.43;;;5.40;92.50;;;;;;5005854;28;25082;-68
2022/02/19 06:46:44;;;;;;;21.40;3.72;;;5.40;92.40;;;;;;5006291;28;25054;-68
2022/02/19 06:49:09;;;;;;;16.92;3.08;;;5.40;92.40;;;;;;5003967;28;25068;-69
2022/02/19 06:51:35;;;;;;;19.10;4.25;;;5.40;92.40;;;;;;5004056;28;25080;-70
2022/02/19 06:54:01;;;;;;;15.75;2.92;;;5.40;92.50;;;;;;5004702;28;25053;-68
2022/02/19 06:56:27;;;;;;;18.75;4.85;;;5.40;92.50;;;;;;5004655;28;25081;-69
2022/02/19 06:58:56;;;;;;;24.38;4.78;;;5.40;92.20;;;;;;4994920;28;25075;-70
2022/02/19 07:01:21;;;;;;;14.88;3.30;;;5.50;92.20;;;;;;5005874;28;25059;-69
2022/02/19 07:03:47;;;;;;;22.80;3.42;;;5.50;92.00;;;;;;5004791;28;25082;-68
2022/02/19 07:06:13;;;;;;;18.25;3.38;;;5.50;91.90;;;;;;4984130;28;25051;-69
2022/02/19 07:08:39;;;;;;;30.95;4.10;;;5.50;91.90;;;;;;4990711;28;25054;-70
2022/02/19 07:11:04;;;;;;;14.38;2.97;;;5.50;91.70;;;;;;4977176;28;25133;-69
2022/02/19 07:13:30;;;;;;;16.42;3.08;;;5.50;91.70;;;;;;4991788;28;25080;-68
2022/02/19 07:15:56;;;;;;;25.02;3.88;;;5.50;91.70;;;;;;5004164;28;25114;-68
2022/02/19 07:18:22;;;;;;;20.45;3.92;;;5.60;91.70;;;;;;5004555;28;25154;-69
2022/02/19 07:20:47;;;;;;;16.48;3.47;;;5.60;91.70;;;;;;5004259;28;25060;-68
2022/02/19 07:23:14;;;;;;;15.02;2.90;;;5.60;91.70;;;;;;5004832;28;25073;-69
2022/02/19 07:25:40;;;;;;;19.58;3.33;;;5.60;91.80;;;;;;5005373;28;25100;-69
2022/02/19 07:28:06;;;;;;;26.33;3.28;;;5.50;91.90;;;;;;5005834;28;25108;-70
2022/02/19 07:30:33;;;;;;;21.05;4.70;;;5.60;91.50;;;;;;5004970;28;25090;-69
2022/02/19 07:32:59;;;;;;;20.05;3.13;;;5.60;91.50;;;;;;5004464;28;25066;-69
2022/02/19 07:35:25;;;;;;;16.95;3.40;;;5.60;91.50;;;;;;5005151;28;25067;-67
2022/02/19 07:37:51;;;;;;;17.33;4.00;;;5.60;91.50;;;;;;5004694;28;25114;-68
2022/02/19 07:40:17;;;;;;;18.33;3.88;;;5.60;91.50;;;;;;5003757;28;25156;-69
2022/02/19 07:42:43;;;;;;;20.95;3.85;;;5.60;91.30;;;;;;4995971;28;25075;-69
2022/02/19 07:45:09;;;;;;;21.02;3.50;;;5.60;91.50;;;;;;5000958;28;25131;-69
2022/02/19 07:47:35;;;;;;;21.80;3.67;;;5.60;91.80;;;;;;5002894;28;25158;-69
2022/02/19 07:58:19;;;;;;;22.00;4.80;;;5.70;92.40;;;;;;4999817;28;25079;-68
2022/02/19 08:00:46;;;;;;;15.07;3.53;;;5.80;92.50;;;;;;5005286;28;25072;-68
2022/02/19 08:03:11;;;;;;;21.38;3.63;;;5.80;92.60;;;;;;5004544;28;25102;-67
2022/02/19 08:05:37;;;;;;;30.20;3.95;;;5.80;92.70;;;;;;4997751;28;25088;-70
2022/02/19 08:08:03;;;;;;;13.68;2.80;;;5.90;92.60;;;;;;5006776;28;25062;-69
2022/02/19 08:10:28;;;;;;;30.48;4.05;;;5.90;92.50;;;;;;4999175;28;25053;-69
2022/02/19 08:12:56;;;;;;;25.83;4.60;;;5.90;92.30;;;;;;5002345;28;25070;-70
2022/02/19 08:15:22;;;;;;;20.08;3.72;;;5.90;92.20;;;;;;4995126;28;25058;-69
2022/02/19 08:17:47;;;;;;;21.00;3.30;;;6.00;92.20;;;;;;5002189;28;25066;-69
2022/02/19 08:20:13;;;;;;;15.18;2.47;;;6.00;92.40;;;;;;4999951;28;25078;-70
2022/02/19 08:22:39;;;;;;;21.70;3.95;;;6.00;92.50;;;;;;5003944;28;25163;-69
2022/02/19 08:25:05;;;;;;;26.52;4.38;;;6.00;92.40;;;;;;4999743;28;25071;-68
2022/02/19 08:27:35;;;;;;;20.23;3.08;;;6.00;92.70;;;;;;5004447;28;25078;-68
2022/02/19 08:30:02;;;;;;;21.02;3.58;;;6.00;92.90;;;;;;5004076;28;25052;-69
2022/02/19 08:32:27;;;;;;;30.08;4.40;;;6.00;93.10;;;;;;5000276;28;25077;-69
2022/02/19 08:34:55;;;;;;;20.13;3.60;;;6.00;93.00;;;;;;5004733;28;25071;-68
2022/02/19 08:37:20;;;;;;;14.68;2.95;;;6.10;93.30;;;;;;5012809;28;25081;-70
2022/02/19 08:39:46;;;;;;;17.85;4.03;;;6.10;93.10;;;;;;5014560;28;25097;-69
2022/02/19 08:42:11;;;;;;;23.00;4.53;;;6.20;93.00;;;;;;5002501;28;25071;-69
2022/02/19 08:44:37;;;;;;;15.73;2.92;;;6.30;93.10;;;;;;5004793;28;25056;-68
2022/02/19 08:47:03;;;;;;;18.10;3.63;;;6.20;93.00;;;;;;5004215;28;25070;-69
2022/02/19 08:49:29;;;;;;;25.83;4.10;;;6.30;92.80;;;;;;5004765;28;25086;-69
2022/02/19 08:51:54;;;;;;;21.98;4.43;;;6.30;92.60;;;;;;5004283;28;25128;-70
2022/02/19 08:54:20;;;;;;;20.38;3.50;;;6.40;92.40;;;;;;5004327;28;25158;-70
2022/02/19 08:56:47;;;;;;;19.10;2.80;;;6.40;92.10;;;;;;4995648;28;25061;-69
2022/02/19 08:59:13;;;;;;;27.52;4.90;;;6.50;91.70;;;;;;4998630;28;25139;-69
2022/02/19 09:01:38;;;;;;;15.23;2.80;;;6.40;91.70;;;;;;4975355;28;25077;-70
2022/02/19 09:04:06;;;;;;;24.10;4.18;;;6.50;91.80;;;;;;4991042;28;25069;-69
2022/02/19 09:06:32;;;;;;;26.45;4.28;;;6.50;91.70;;;;;;4980008;28;25072;-68
2022/02/19 09:08:57;;;;;;;20.70;3.70;;;6.50;91.60;;;;;;4994618;28;25144;-70
2022/02/19 09:11:23;;;;;;;12.32;2.92;;;6.70;91.80;;;;;;4991233;28;25061;-68
2022/02/19 09:13:51;;;;;;;17.52;3.63;;;6.80;91.60;;;;;;4999547;28;25124;-67
2022/02/19 09:16:17;;;;;;;19.73;3.75;;;6.90;91.70;;;;;;4980217;28;25113;-68
2022/02/19 09:18:42;;;;;;;22.75;3.67;;;6.90;91.70;;;;;;4991585;28;25116;-71
2022/02/19 09:21:08;;;;;;;19.83;3.47;;;6.80;92.20;;;;;;4998864;28;25092;-72
2022/02/19 09:23:34;;;;;;;22.83;3.33;;;6.90;92.30;;;;;;5004448;28;25152;-70
2022/02/19 09:25:59;;;;;;;20.02;3.55;;;7.00;92.10;;;;;;5000043;28;25081;-67
2022/02/19 09:28:25;;;;;;;21.45;3.95;;;7.10;92.00;;;;;;4994025;28;25074;-69
2022/02/19 09:30:51;;;;;;;20.10;4.15;;;7.10;91.80;;;;;;4990981;28;25132;-71
2022/02/19 09:33:16;;;;;;;25.30;4.30;;;7.20;92.00;;;;;;5004981;28;25083;-70
2022/02/19 09:35:42;;;;;;;14.57;2.80;;;7.20;91.30;;;;;;4989676;28;25066;-69
2022/02/19 09:38:07;;;;;;;22.25;3.75;;;7.30;91.10;;;;;;5008137;28;25073;-69
2022/02/19 09:40:33;;;;;;;20.23;3.20;;;7.30;90.90;;;;;;5008412;28;25172;-69
2022/02/19 09:42:58;;;;;;;19.17;3.28;;;7.30;90.70;;;;;;5007380;28;25158;-68
2022/02/19 09:45:29;;;;;;;26.17;3.60;;;7.20;90.60;;;;;;4999445;28;25084;-68
2022/02/19 09:47:56;;;;;;;17.98;2.92;;;7.10;90.50;;;;;;5007629;28;25130;-70
2022/02/19 09:50:25;;;;;;;19.17;3.33;;;7.10;90.80;;;;;;4993921;28;25090;-69
2022/02/19 09:52:51;;;;;;;13.82;2.40;;;7.00;91.00;;;;;;4992041;28;25075;-70
2022/02/19 09:55:16;;;;;;;22.52;4.40;;;7.10;91.30;;;;;;5001374;28;25072;-69
2022/02/19 09:57:42;;;;;;;13.77;3.97;;;7.10;91.70;;;;;;4992444;28;25065;-71
2022/02/19 10:00:08;;;;;;;15.05;2.97;;;7.10;92.10;;;;;;5010217;28;25096;-70
2022/02/19 10:02:35;;;;;;;17.15;3.55;;;7.20;92.60;;;;;;5026622;28;25061;-71
2022/02/19 10:05:10;;;;;;;17.98;3.28;;;7.30;92.60;;;;;;5034181;28;25064;-72
2022/02/19 10:07:36;;;;;;;21.05;3.65;;;7.30;92.60;;;;;;5023683;28;25110;-69
2022/02/19 10:10:02;;;;;;;26.75;4.63;;;7.50;92.70;;;;;;5004865;28;25071;-70
2022/02/19 10:12:46;;;;;;;33.95;4.60;;;7.50;91.50;;;;;;5006437;28;25075;-71
2022/02/19 10:15:12;;;;;;;14.07;2.55;;;7.40;91.40;;;;;;5011058;28;25084;-72
2022/02/19 10:17:38;;;;;;;19.60;3.45;;;7.50;91.40;;;;;;5016630;28;25065;-71
2022/02/19 10:20:07;;;;;;;15.38;3.55;;;7.50;91.80;;;;;;5011022;28;25072;-70
2022/02/19 10:22:40;;;;;;;15.65;3.38;;;7.40;91.30;;;;;;5006583;28;25130;-71
2022/02/19 10:25:10;;;;;;;18.20;3.15;;;7.30;91.30;;;;;;4993504;28;25072;-72
2022/02/19 10:27:44;;;;;;;17.77;3.55;;;7.30;91.10;;;;;;5006179;28;25073;-69
2022/02/19 10:30:11;;;;;;;15.73;3.30;;;7.40;90.60;;;;;;5011500;28;25088;-70
2022/02/19 10:32:49;;;;;;;17.52;4.00;;;7.30;90.70;;;;;;5013395;28;25151;-70
2022/02/19 10:35:15;;;;;;;24.55;3.45;;;7.20;90.60;;;;;;5008014;28;25113;-70
2022/02/19 10:37:49;;;;;;;11.13;2.17;;;7.20;90.50;;;;;;5013328;28;25526;-70
2022/02/19 10:40:36;;;;;;;16.75;3.28;;;7.20;90.30;;;;;;5006700;28;25050;-70
2022/02/19 10:43:04;;;;;;;19.55;3.83;;;7.20;90.30;;;;;;4993945;28;25098;-70
2022/02/19 10:45:31;;;;;;;21.58;3.45;;;7.40;90.10;;;;;;4978311;28;25057;-69
2022/02/19 10:48:15;;;;;;;14.35;3.13;;;7.70;89.80;;;;;;4997647;28;25158;-71
2022/02/19 10:50:47;;;;;;;18.05;3.17;;;7.80;89.90;;;;;;4996546;28;25121;-70
2022/02/19 10:53:22;;;;;;;17.27;2.75;;;7.80;89.40;;;;;;4998533;28;25125;-69
2022/02/19 10:55:48;;;;;;;12.20;3.33;;;7.80;90.00;;;;;;4997338;28;25064;-70
2022/02/19 10:58:13;;;;;;;14.07;3.67;;;7.80;90.40;;;;;;4997660;28;25057;-71
2022/02/19 11:00:40;;;;;;;26.00;3.85;;;8.10;89.30;;;;;;4995579;28;25076;-70
2022/02/19 11:03:09;;;;;;;14.63;3.13;;;8.20;87.30;;;;;;4991079;28;25059;-69
2022/02/19 11:05:35;;;;;;;26.77;3.83;;;8.00;87.50;;;;;;4996996;28;25070;-71
2022/02/19 11:08:01;;;;;;;13.35;3.28;;;8.00;88.30;;;;;;4999901;28;25073;-70
2022/02/19 11:10:28;;;;;;;20.23;3.28;;;8.00;88.10;;;;;;4993041;28;25117;-70
2022/02/19 11:12:54;;;;;;;16.27;3.17;;;8.00;87.80;;;;;;4982754;28;25077;-69
2022/02/19 11:15:23;;;;;;;12.65;2.97;;;8.10;87.80;;;;;;4994226;28;25058;-71
2022/02/19 11:17:50;;;;;;;21.35;4.20;;;8.50;85.80;;;;;;4978912;28;25108;-69
2022/02/19 11:20:17;;;;;;;19.42;3.38;;;8.80;85.30;;;;;;5006782;28;25173;-68
2022/02/19 11:22:43;;;;;;;19.17;3.50;;;9.00;84.30;;;;;;5009710;28;25080;-72
2022/02/19 11:25:15;;;;;;;12.60;3.00;;;9.10;83.40;;;;;;5008276;28;25068;-69
2022/02/19 11:28:01;;;;;;;;;;;9.40;80.70;;;;;;5001742;28;25152;-68
2022/02/19 11:30:30;;;;;;;15.35;3.10;;;9.40;81.20;;;;;;4997115;28;25091;-70
2022/02/19 11:32:58;;;;;;;21.35;3.50;;;9.30;81.50;;;;;;5008778;28;25078;-71
2022/02/19 11:35:35;;;;;;;18.60;2.95;;;9.00;82.60;;;;;;5009359;28;25098;-72
2022/02/19 11:38:01;;;;;;;9.65;3.30;;;8.60;82.60;;;;;;5007987;28;25087;-69
2022/02/19 11:40:42;;;;;;;28.40;3.58;;;8.40;83.60;;;;;;5004793;28;25090;-70
2022/02/19 11:43:38;;;;;;;12.73;3.33;;;8.20;84.40;;;;;;4990138;28;25091;-72
2022/02/19 11:46:27;;;;;;;15.88;3.05;;;7.90;83.50;;;;;;4990634;28;25072;-70
2022/02/19 11:48:53;;;;;;;15.70;3.08;;;7.90;84.10;;;;;;4997457;28;25066;-70
2022/02/19 11:51:22;;;;;;;14.65;3.35;;;8.00;84.00;;;;;;5008805;28;25138;-69
2022/02/19 11:53:52;;;;;;;22.15;3.05;;;8.00;84.80;;;;;;5008459;28;25099;-71
2022/02/19 11:56:40;;;;;;;20.17;3.13;;;8.00;83.80;;;;;;5008254;28;25144;-72
2022/02/19 11:59:09;;;;;;;14.43;3.08;;;8.10;83.50;;;;;;4993168;28;25153;-71
2022/02/19 12:01:35;;;;;;;14.63;2.70;;;8.40;82.80;;;;;;5008716;28;25107;-69
2022/02/19 12:04:09;;;;;;;11.40;2.28;;;8.70;81.00;;;;;;5008635;28;25100;-69
2022/02/19 12:06:39;;;;;;;17.20;2.83;;;9.10;81.20;;;;;;5009083;28;25101;-70
2022/02/19 12:09:06;;;;;;;19.70;3.03;;;9.40;79.60;;;;;;5008876;28;25052;-71
2022/02/19 12:11:52;;;;;;;12.38;3.67;;;9.00;79.70;;;;;;5009037;28;25121;-70
2022/02/19 12:14:39;;;;;;;19.05;2.47;;;8.70;81.00;;;;;;5007345;28;25092;-70
2022/02/19 12:17:15;;;;;;;12.93;2.67;;;8.70;82.40;;;;;;5008550;28;25081;-70
2022/02/19 12:19:59;;;;;;;18.02;2.67;;;8.60;82.90;;;;;;4991587;28;25052;-70
2022/02/19 12:22:38;;;;;;;17.80;2.65;;;8.70;80.60;;;;;;5013111;28;25067;-72
2022/02/19 12:25:06;;;;;;;18.13;2.70;;;8.60;81.50;;;;;;5021694;28;25116;-70
2022/02/19 12:27:33;;;;;;;17.63;3.10;;;8.60;81.40;;;;;;5011458;28;25054;-70
2022/02/19 12:30:18;;;;;;;21.33;3.58;;;8.70;81.80;;;;;;5009411;28;25047;-72
2022/02/19 12:32:46;;;;;;;17.52;4.32;;;8.70;82.30;;;;;;4992031;28;25135;-71
2022/02/19 12:35:12;;;;;;;14.25;2.15;;;8.60;82.00;;;;;;5007763;28;25143;-70
2022/02/19 12:37:37;;;;;;;12.82;2.90;;;8.70;82.60;;;;;;5007941;28;25057;-70
2022/02/19 12:40:04;;;;;;;12.93;3.55;;;8.90;82.00;;;;;;5008298;28;24745;-70
2022/02/19 12:42:31;;;;;;;21.27;3.10;;;8.90;83.10;;;;;;5008407;28;25078;-71
2022/02/19 12:45:08;;;;;;;15.70;3.35;;;8.80;82.90;;;;;;5007414;28;25067;-71
2022/02/19 12:47:35;;;;;;;23.48;3.60;;;8.80;82.70;;;;;;5008151;28;25063;-72
2022/02/19 12:50:02;;;;;;;22.48;3.22;;;8.60;82.70;;;;;;5007437;28;25144;-70
2022/02/19 12:52:28;;;;;;;12.23;2.42;;;8.60;83.50;;;;;;5007736;28;25106;-72
2022/02/19 12:54:54;;;;;;;17.83;3.10;;;8.90;83.80;;;;;;5009042;28;25089;-70